createdAt,value
2018-08-04T00:00:11.602Z,8.03
2018-08-04T00:02:41.219Z,7.70
2018-08-04T00:05:11.230Z,8.80
2018-08-04T00:07:40.843Z,8.73
2018-08-04T00:10:19.445Z,8.20
2018-08-04T00:12:50.195Z,8.17
2018-08-04T00:15:20.001Z,7.80
2018-08-04T00:17:50.112Z,8.63
2018-08-04T00:20:19.721Z,9.63
2018-08-04T00:22:49.319Z,8.37
2018-08-04T00:25:18.946Z,8.13
2018-08-04T00:27:48.556Z,8.40
2018-08-04T00:30:18.209Z,8.07
2018-08-04T00:32:47.787Z,8.23
2018-08-04T00:35:17.431Z,9.03
2018-08-04T00:37:47.044Z,8.30
2018-08-04T00:40:16.624Z,8.73
2018-08-04T00:42:46.218Z,8.93
2018-08-04T00:45:15.835Z,9.00
2018-08-04T00:47:45.459Z,8.57
2018-08-04T00:50:15.049Z,8.67
2018-08-04T00:52:44.623Z,9.13
2018-08-04T00:55:14.180Z,8.63
2018-08-04T00:57:43.799Z,7.47
2018-08-04T01:00:13.400Z,9.03
2018-08-04T01:02:43.016Z,9.50
2018-08-04T01:05:12.599Z,8.20
2018-08-04T01:07:42.184Z,8.00
2018-08-04T01:10:11.855Z,8.77
2018-08-04T01:12:41.448Z,8.20
2018-08-04T01:15:11.090Z,8.03
2018-08-04T01:17:40.684Z,8.73
2018-08-04T01:20:10.255Z,8.37
2018-08-04T01:22:39.863Z,8.53
2018-08-04T01:25:09.440Z,9.20
2018-08-04T01:27:39.021Z,8.47
2018-08-04T01:30:08.700Z,8.70
2018-08-04T01:32:38.268Z,9.27
2018-08-04T01:35:07.847Z,9.67
2018-08-04T01:37:37.431Z,9.53
2018-08-04T01:40:07.269Z,8.67
2018-08-04T01:42:36.920Z,9.67
2018-08-04T01:45:06.944Z,8.90
2018-08-04T01:47:36.528Z,9.43
2018-08-04T01:50:06.484Z,10.70
2018-08-04T01:52:36.125Z,9.53
2018-08-04T01:55:05.816Z,10.50
2018-08-04T01:57:35.401Z,10.60
2018-08-04T02:00:05.182Z,11.27
2018-08-04T02:02:34.824Z,12.00
2018-08-04T02:05:04.483Z,10.50
2018-08-04T02:07:34.092Z,10.80
2018-08-04T02:10:03.720Z,11.83
2018-08-04T02:12:33.324Z,10.80
2018-08-04T02:15:02.941Z,10.27
2018-08-04T02:17:32.528Z,11.07
2018-08-04T02:20:02.131Z,11.37
2018-08-04T02:22:31.703Z,9.80
2018-08-04T02:25:01.289Z,11.07
2018-08-04T02:27:30.881Z,11.20
2018-08-04T02:30:00.505Z,9.83
2018-08-04T02:32:30.083Z,10.97
2018-08-04T02:34:59.660Z,9.97
2018-08-04T02:37:29.276Z,8.87
2018-08-04T02:39:58.874Z,9.57
2018-08-04T02:42:28.476Z,9.20
2018-08-04T02:44:58.076Z,9.10
2018-08-04T02:47:27.659Z,9.90
2018-08-04T02:49:57.252Z,9.83
2018-08-04T02:52:26.840Z,9.40
2018-08-04T02:54:56.408Z,9.50
2018-08-04T02:57:25.977Z,9.07
2018-08-04T02:59:55.563Z,8.93
2018-08-04T03:02:25.158Z,9.27
2018-08-04T03:04:54.724Z,9.67
2018-08-04T03:07:24.360Z,9.50
2018-08-04T03:09:53.921Z,9.27
2018-08-04T03:12:23.488Z,9.10
2018-08-04T03:14:53.328Z,9.73
2018-08-04T03:17:22.975Z,9.57
2018-08-04T03:19:52.577Z,9.90
2018-08-04T03:22:22.162Z,10.00
2018-08-04T03:24:51.762Z,10.40
2018-08-04T03:27:21.404Z,10.73
2018-08-04T03:29:51.007Z,10.00
2018-08-04T03:32:20.596Z,10.77
2018-08-04T03:34:50.556Z,10.63
2018-08-04T03:37:20.180Z,10.23
2018-08-04T03:39:49.935Z,9.83
2018-08-04T03:42:19.532Z,9.47
2018-08-04T03:44:49.124Z,11.43
2018-08-04T03:47:18.732Z,9.00
2018-08-04T03:49:48.338Z,10.23
2018-08-04T03:52:17.904Z,10.23
2018-08-04T03:54:47.506Z,10.30
2018-08-04T03:57:17.077Z,10.57
2018-08-04T03:59:46.687Z,10.73
2018-08-04T04:02:16.277Z,10.60
2018-08-04T04:04:45.889Z,10.67
2018-08-04T04:07:15.497Z,10.53
2018-08-04T04:09:45.081Z,10.17
2018-08-04T04:12:14.683Z,9.47
2018-08-04T04:14:44.328Z,9.10
2018-08-04T04:17:13.911Z,9.37
2018-08-04T04:19:43.487Z,9.67
2018-08-04T04:22:13.115Z,11.30
2018-08-04T04:24:42.686Z,10.40
2018-08-04T04:27:12.296Z,11.03
2018-08-04T04:29:41.868Z,10.43
2018-08-04T04:32:11.522Z,11.70
2018-08-04T04:34:41.100Z,11.47
2018-08-04T04:37:10.984Z,11.73
2018-08-04T04:39:40.596Z,10.97
2018-08-04T04:42:10.200Z,11.07
2018-08-04T04:44:39.799Z,10.60
2018-08-04T04:47:09.384Z,11.10
2018-08-04T04:49:38.988Z,11.70
2018-08-04T04:52:08.624Z,11.77
2018-08-04T04:54:38.228Z,12.07
2018-08-04T04:57:07.811Z,11.10
2018-08-04T04:59:37.390Z,10.63
2018-08-04T05:02:07.088Z,11.27
2018-08-04T05:04:36.660Z,11.47
2018-08-04T05:07:06.317Z,10.77
2018-08-04T05:09:35.943Z,11.27
2018-08-04T05:12:05.622Z,11.50
2018-08-04T05:14:35.245Z,10.63
2018-08-04T05:17:04.876Z,11.37
2018-08-04T05:19:34.475Z,11.57
2018-08-04T05:22:04.136Z,11.47
2018-08-04T05:24:33.727Z,12.37
2018-08-04T05:27:03.316Z,11.50
2018-08-04T05:29:32.919Z,11.37
2018-08-04T05:32:02.546Z,10.50
2018-08-04T05:34:32.109Z,10.73
2018-08-04T05:37:01.711Z,11.83
2018-08-04T05:39:31.408Z,11.87
2018-08-04T05:42:01.004Z,11.93
2018-08-04T05:44:30.659Z,12.00
2018-08-04T05:47:00.220Z,12.50
2018-08-04T05:49:29.792Z,11.57
2018-08-04T05:51:59.400Z,11.80
2018-08-04T05:54:28.994Z,12.03
2018-08-04T05:56:58.596Z,11.77
2018-08-04T05:59:28.215Z,11.97
2018-08-04T06:01:57.811Z,11.40
2018-08-04T06:04:27.463Z,11.47
2018-08-04T06:06:57.033Z,11.50
2018-08-04T06:09:26.608Z,11.93
2018-08-04T06:11:56.196Z,11.70
2018-08-04T06:14:25.800Z,11.90
2018-08-04T06:16:55.413Z,12.53
2018-08-04T06:19:25.304Z,11.87
2018-08-04T06:21:54.897Z,12.00
2018-08-04T06:24:24.512Z,11.27
2018-08-04T06:26:54.076Z,11.80
2018-08-04T06:29:23.663Z,10.60
2018-08-04T06:31:53.251Z,11.87
2018-08-04T06:34:22.841Z,10.73
2018-08-04T06:36:52.436Z,9.07
2018-08-04T06:39:22.072Z,11.30
2018-08-04T06:41:51.664Z,10.70
2018-08-04T06:44:21.333Z,11.30
2018-08-04T06:46:50.928Z,10.47
2018-08-04T06:49:20.516Z,10.67
2018-08-04T06:51:50.104Z,10.37
2018-08-04T06:54:19.715Z,10.63
2018-08-04T06:56:49.305Z,10.47
2018-08-04T06:59:18.898Z,11.80
2018-08-04T07:01:48.486Z,10.97
2018-08-04T07:04:18.055Z,10.87
2018-08-04T07:06:47.674Z,10.70
2018-08-04T07:09:17.264Z,10.83
2018-08-04T07:11:46.837Z,10.23
2018-08-04T07:14:16.412Z,10.67
2018-08-04T07:16:46.028Z,9.97
2018-08-04T07:19:15.625Z,10.80
2018-08-04T07:21:45.217Z,9.93
2018-08-04T07:24:14.811Z,10.50
2018-08-04T07:26:44.441Z,9.37
2018-08-04T07:29:14.055Z,10.73
2018-08-04T07:31:43.644Z,10.03
2018-08-04T07:34:13.281Z,10.30
2018-08-04T07:36:42.855Z,9.67
2018-08-04T07:39:12.503Z,9.53
2018-08-04T07:41:42.100Z,8.70
2018-08-04T07:44:11.660Z,9.60
2018-08-04T07:46:41.269Z,8.80
2018-08-04T07:49:10.928Z,9.10
2018-08-04T07:51:40.503Z,9.23
2018-08-04T07:54:10.076Z,8.87
2018-08-04T07:56:42.528Z,9.53
2018-08-04T07:59:12.105Z,9.67
2018-08-04T08:01:41.717Z,9.40
2018-08-04T08:04:11.290Z,9.83
2018-08-04T08:06:40.877Z,9.87
2018-08-04T08:09:10.476Z,9.77
2018-08-04T08:11:40.072Z,8.60
2018-08-04T08:14:09.709Z,9.47
2018-08-04T08:16:39.724Z,9.63
2018-08-04T08:19:09.740Z,8.20
2018-08-04T08:21:39.361Z,8.67
2018-08-04T08:24:08.948Z,8.97
2018-08-04T08:26:38.535Z,9.07
2018-08-04T08:29:08.161Z,9.57
2018-08-04T08:31:37.812Z,9.13
2018-08-04T08:34:07.460Z,9.07
2018-08-04T08:36:37.048Z,9.80
2018-08-04T08:39:08.305Z,9.20
2018-08-04T08:41:37.904Z,9.20
2018-08-04T08:44:07.478Z,9.57
2018-08-04T08:46:37.093Z,9.00
2018-08-04T08:49:06.753Z,8.43
2018-08-04T08:51:36.336Z,8.77
2018-08-04T08:54:05.986Z,8.47
2018-08-04T08:56:35.524Z,8.47
2018-08-04T08:59:05.123Z,9.43
2018-08-04T09:01:34.696Z,8.57
2018-08-04T09:04:04.348Z,8.70
2018-08-04T09:06:33.956Z,9.30
2018-08-04T09:09:04.729Z,9.03
2018-08-04T09:11:34.319Z,9.20
2018-08-04T09:14:03.983Z,9.33
2018-08-04T09:16:33.584Z,9.93
2018-08-04T09:19:03.210Z,9.37
2018-08-04T09:21:32.831Z,9.43
2018-08-04T09:24:02.448Z,9.37
2018-08-04T09:26:32.085Z,8.40
2018-08-04T09:29:01.679Z,8.13
2018-08-04T09:31:31.287Z,8.90
2018-08-04T09:34:01.283Z,8.70
2018-08-04T09:36:30.895Z,7.57
2018-08-04T09:39:00.485Z,7.73
2018-08-04T09:41:30.197Z,7.63
2018-08-04T09:43:59.760Z,7.07
2018-08-04T09:46:29.364Z,7.40
2018-08-04T09:48:58.944Z,7.70
2018-08-04T09:51:28.616Z,6.87
2018-08-04T09:53:58.443Z,7.17
2018-08-04T09:56:28.043Z,7.67
2018-08-04T09:58:57.634Z,6.33
2018-08-04T10:01:32.499Z,6.80
2018-08-04T10:04:02.115Z,6.10
2018-08-04T10:06:31.664Z,6.17
2018-08-04T10:09:01.264Z,6.60
2018-08-04T10:11:30.908Z,6.17
2018-08-04T10:14:00.477Z,6.60
2018-08-04T10:16:30.074Z,6.12
2018-08-04T10:18:59.673Z,5.70
2018-08-04T10:21:29.243Z,5.13
2018-08-04T10:23:58.821Z,5.10
2018-08-04T10:26:28.439Z,5.08
2018-08-04T10:28:58.030Z,4.95
2018-08-04T10:31:27.600Z,5.05
2018-08-04T10:33:57.196Z,4.97
2018-08-04T10:36:26.779Z,5.12
2018-08-04T10:38:56.360Z,4.30
2018-08-04T10:41:25.946Z,4.60
2018-08-04T10:43:55.560Z,5.60
2018-08-04T10:46:25.101Z,5.03
2018-08-04T10:48:54.670Z,4.80
2018-08-04T10:51:24.240Z,5.58
2018-08-04T10:53:53.848Z,5.60
2018-08-04T10:56:23.435Z,5.83
2018-08-04T10:58:53.016Z,5.42
2018-08-04T11:01:22.568Z,6.45
2018-08-04T11:03:52.453Z,5.75
2018-08-04T11:06:22.072Z,5.58
2018-08-04T11:08:51.707Z,6.00
2018-08-04T11:11:21.327Z,5.42
2018-08-04T11:13:50.923Z,5.97
2018-08-04T11:16:20.508Z,6.30
2018-08-04T11:18:50.119Z,6.40
2018-08-04T11:21:19.701Z,6.00
2018-08-04T11:24:03.908Z,5.50
2018-08-04T11:26:34.380Z,6.25
2018-08-04T11:29:03.956Z,6.78
2018-08-04T11:31:33.638Z,5.62
2018-08-04T11:34:03.248Z,6.15
2018-08-04T11:36:32.850Z,7.08
2018-08-04T11:39:02.518Z,6.53
2018-08-04T11:41:32.104Z,5.85
2018-08-04T11:44:01.672Z,5.67
2018-08-04T11:46:31.245Z,5.95
2018-08-04T11:49:00.813Z,5.97
2018-08-04T11:51:30.475Z,5.33
2018-08-04T11:54:00.032Z,5.97
2018-08-04T11:56:29.605Z,6.22
2018-08-04T11:58:59.207Z,5.80
2018-08-04T12:01:28.804Z,5.83
2018-08-04T12:03:58.374Z,5.92
2018-08-04T12:06:28.060Z,6.10
2018-08-04T12:08:57.608Z,5.67
2018-08-04T12:11:27.192Z,5.08
2018-08-04T12:13:56.769Z,5.85
2018-08-04T12:16:26.354Z,5.33
2018-08-04T12:18:55.908Z,4.83
2018-08-04T12:21:25.479Z,5.10
2018-08-04T12:23:55.079Z,4.50
2018-08-04T12:26:24.646Z,4.65
2018-08-04T12:28:54.207Z,5.28
2018-08-04T12:31:23.806Z,5.03
2018-08-04T12:33:53.491Z,4.58
2018-08-04T12:36:23.051Z,4.00
2018-08-04T12:38:52.617Z,4.25
2018-08-04T12:41:22.179Z,4.22
2018-08-04T12:43:51.749Z,4.00
2018-08-04T12:46:21.340Z,3.58
2018-08-04T12:48:50.931Z,3.33
2018-08-04T12:51:20.505Z,3.87
2018-08-04T12:53:50.084Z,4.10
2018-08-04T12:56:19.660Z,3.20
2018-08-04T12:58:49.225Z,3.75
2018-08-04T13:01:18.820Z,3.83
2018-08-04T13:03:48.400Z,4.47
2018-08-04T13:06:17.984Z,4.70
2018-08-04T13:08:47.620Z,3.90
2018-08-04T13:11:17.175Z,3.40
2018-08-04T13:13:46.756Z,3.80
2018-08-04T13:16:16.341Z,3.52
2018-08-04T13:18:45.927Z,3.05
2018-08-04T13:21:15.509Z,3.22
2018-08-04T13:23:45.112Z,3.70
2018-08-04T13:26:14.707Z,3.12
2018-08-04T13:28:44.295Z,3.35
2018-08-04T13:31:13.865Z,3.10
2018-08-04T13:33:43.403Z,3.50
2018-08-04T13:36:12.982Z,2.87
2018-08-04T13:38:42.616Z,3.35
2018-08-04T13:41:12.358Z,2.80
2018-08-04T13:43:41.945Z,3.62
2018-08-04T13:46:11.531Z,3.90
2018-08-04T13:48:41.084Z,3.22
2018-08-04T13:51:17.163Z,3.40
2018-08-04T13:53:46.724Z,2.98
2018-08-04T13:56:16.287Z,3.52
2018-08-04T13:58:45.911Z,3.10
2018-08-04T14:01:15.453Z,3.02
2018-08-04T14:03:45.379Z,3.10
2018-08-04T14:06:31.246Z,2.65
2018-08-04T14:09:01.481Z,3.12
2018-08-04T14:11:31.596Z,3.37
2018-08-04T14:14:01.303Z,3.52
2018-08-04T14:16:30.904Z,3.08
2018-08-04T14:19:00.549Z,3.35
2018-08-04T14:21:30.905Z,2.58
2018-08-04T14:24:00.532Z,3.15
2018-08-04T14:26:30.169Z,3.33
2018-08-04T14:28:59.853Z,3.50
2018-08-04T14:31:29.679Z,2.92
2018-08-04T14:33:59.325Z,3.12
2018-08-04T14:36:30.056Z,3.70
2018-08-04T14:39:02.366Z,3.22
2018-08-04T14:41:33.863Z,3.75
2018-08-04T14:44:03.767Z,4.15
2018-08-04T14:46:34.281Z,4.83
2018-08-04T14:49:03.950Z,4.05
2018-08-04T14:51:34.930Z,4.55
2018-08-04T14:54:04.988Z,4.12
2018-08-04T14:56:36.177Z,4.65
2018-08-04T14:59:07.909Z,4.80
2018-08-04T15:01:38.625Z,4.70
2018-08-04T15:04:10.573Z,5.42
2018-08-04T15:06:41.830Z,5.20
2018-08-04T15:09:12.820Z,3.83
2018-08-04T15:11:43.628Z,4.62
2018-08-04T15:14:14.903Z,4.15
2018-08-04T15:16:47.202Z,4.40
2018-08-04T15:19:16.956Z,4.15
2018-08-04T15:21:48.038Z,4.58
2018-08-04T15:24:17.834Z,4.47
2018-08-04T15:26:48.860Z,4.65
2018-08-04T15:29:23.333Z,4.85
2018-08-04T15:31:54.593Z,4.12
2018-08-04T15:34:24.385Z,4.70
2018-08-04T15:36:55.311Z,4.87
2018-08-04T15:39:24.949Z,4.65
2018-08-04T15:41:55.105Z,4.80
2018-08-04T15:44:24.778Z,4.47
2018-08-04T15:46:54.452Z,5.87
2018-08-04T15:49:24.192Z,4.30
2018-08-04T15:51:53.920Z,5.10
2018-08-04T15:54:23.621Z,4.45
2018-08-04T15:56:53.244Z,5.20
2018-08-04T15:59:22.856Z,4.58
2018-08-04T16:01:52.468Z,4.67
2018-08-04T16:04:22.154Z,4.17
2018-08-04T16:06:51.769Z,4.78
2018-08-04T16:09:21.383Z,4.45
2018-08-04T16:11:51.017Z,4.90
2018-08-04T16:14:20.677Z,5.05
2018-08-04T16:16:50.342Z,4.78
2018-08-04T16:19:19.948Z,4.58
2018-08-04T16:21:50.152Z,4.53
2018-08-04T16:24:19.864Z,4.22
2018-08-04T16:26:49.664Z,4.60
2018-08-04T16:29:19.715Z,4.62
2018-08-04T16:31:49.396Z,4.87
2018-08-04T16:34:19.038Z,4.70
2018-08-04T16:36:48.689Z,5.03
2018-08-04T16:39:18.357Z,4.87
2018-08-04T16:41:48.035Z,5.10
2018-08-04T16:44:17.665Z,5.60
2018-08-04T16:46:47.394Z,5.00
2018-08-04T16:49:17.049Z,5.55
2018-08-04T16:51:47.190Z,5.53
2018-08-04T16:54:17.008Z,4.83
2018-08-04T16:56:46.664Z,5.42
2018-08-04T16:59:16.317Z,5.35
2018-08-04T17:01:46.175Z,5.65
2018-08-04T17:04:15.839Z,5.62
2018-08-04T17:06:46.038Z,5.33
2018-08-04T17:09:15.804Z,5.22
2018-08-04T17:11:45.892Z,5.22
2018-08-04T17:14:15.549Z,5.08
2018-08-04T17:16:45.213Z,5.58
2018-08-04T17:19:14.961Z,5.65
2018-08-04T17:21:44.564Z,5.53
2018-08-04T17:24:14.339Z,4.97
2018-08-04T17:26:44.241Z,5.83
2018-08-04T17:29:13.935Z,5.10
2018-08-04T17:31:43.624Z,5.37
2018-08-04T17:34:13.247Z,4.67
2018-08-04T17:36:42.880Z,5.43
2018-08-04T17:39:12.533Z,5.27
2018-08-04T17:41:42.191Z,4.87
2018-08-04T17:44:11.836Z,5.17
2018-08-04T17:46:41.508Z,6.17
2018-08-04T17:49:11.172Z,5.10
2018-08-04T17:51:40.878Z,6.13
2018-08-04T17:54:10.551Z,5.90
2018-08-04T17:56:40.190Z,5.90
2018-08-04T17:59:09.829Z,4.93
2018-08-04T18:01:39.551Z,5.40
2018-08-04T18:04:09.202Z,5.30
2018-08-04T18:06:38.913Z,5.67
2018-08-04T18:09:09.718Z,5.50
2018-08-04T18:11:40.267Z,5.20
2018-08-04T18:14:09.993Z,5.73
2018-08-04T18:16:39.639Z,5.47
2018-08-04T18:19:09.465Z,5.17
2018-08-04T18:21:39.113Z,4.50
2018-08-04T18:24:08.838Z,5.57
2018-08-04T18:26:38.583Z,5.60
2018-08-04T18:29:08.349Z,5.60
2018-08-04T18:31:38.900Z,5.03
2018-08-04T18:34:08.652Z,5.73
2018-08-04T18:36:38.330Z,5.63
2018-08-04T18:39:09.321Z,5.20
2018-08-04T18:41:39.964Z,5.70
2018-08-04T18:44:09.682Z,6.07
2018-08-04T18:46:39.421Z,6.00
2018-08-04T18:49:09.177Z,5.27
2018-08-04T18:51:38.965Z,5.60
2018-08-04T18:54:08.665Z,5.23
2018-08-04T18:56:38.347Z,5.57
2018-08-04T18:59:08.132Z,5.37
2018-08-04T19:01:37.752Z,5.10
2018-08-04T19:04:07.420Z,5.50
2018-08-04T19:06:37.114Z,5.73
2018-08-04T19:09:09.045Z,5.30
2018-08-04T19:11:38.707Z,5.33
2018-08-04T19:14:08.967Z,5.93
2018-08-04T19:16:38.647Z,6.03
2018-08-04T19:19:08.282Z,5.30
2018-08-04T19:21:37.958Z,5.30
2018-08-04T19:24:07.665Z,5.40
2018-08-04T19:26:37.340Z,5.30
2018-08-04T19:29:07.070Z,5.03
2018-08-04T19:31:37.264Z,5.60
2018-08-04T19:34:06.934Z,5.33
2018-08-04T19:36:36.602Z,5.73
2018-08-04T19:39:08.646Z,5.97
2018-08-04T19:41:38.377Z,5.47
2018-08-04T19:44:08.167Z,5.77
2018-08-04T19:46:37.860Z,5.37
2018-08-04T19:49:07.495Z,6.20
2018-08-04T19:51:37.263Z,5.87
2018-08-04T19:54:07.159Z,6.10
2018-08-04T19:56:36.840Z,6.17
2018-08-04T19:59:06.785Z,5.73
2018-08-04T20:01:36.773Z,5.80
2018-08-04T20:04:06.668Z,5.73
2018-08-04T20:06:36.374Z,6.03
2018-08-04T20:09:12.971Z,5.70
2018-08-04T20:11:42.620Z,5.53
2018-08-04T20:14:12.343Z,5.30
2018-08-04T20:16:42.530Z,5.87
2018-08-04T20:19:12.220Z,6.17
2018-08-04T20:21:41.872Z,5.77
2018-08-04T20:24:11.499Z,6.63
2018-08-04T20:26:41.172Z,6.87
2018-08-04T20:29:10.914Z,6.23
2018-08-04T20:31:40.550Z,5.83
2018-08-04T20:34:10.889Z,6.83
2018-08-04T20:36:40.575Z,6.30
2018-08-04T20:39:11.011Z,5.80
2018-08-04T20:41:40.668Z,6.50
2018-08-04T20:44:10.357Z,6.33
2018-08-04T20:46:41.336Z,6.50
2018-08-04T20:49:10.965Z,7.17
2018-08-04T20:51:40.677Z,6.30
2018-08-04T20:54:10.372Z,6.90
2018-08-04T20:56:40.055Z,6.43
2018-08-04T20:59:09.706Z,7.43
2018-08-04T21:02:10.431Z,6.67
2018-08-04T21:04:40.116Z,6.40
2018-08-04T21:07:09.833Z,7.00
2018-08-04T21:09:39.484Z,6.80
2018-08-04T21:12:09.178Z,6.70
2018-08-04T21:14:39.252Z,6.53
2018-08-04T21:17:08.969Z,7.40
2018-08-04T21:19:38.719Z,7.77
2018-08-04T21:22:08.894Z,7.87
2018-08-04T21:24:38.546Z,6.77
2018-08-04T21:27:08.217Z,8.40
2018-08-04T21:29:37.843Z,7.97
2018-08-04T21:32:07.565Z,7.57
2018-08-04T21:34:37.215Z,8.50
2018-08-04T21:37:06.877Z,7.67
2018-08-04T21:39:36.508Z,7.97
2018-08-04T21:42:06.202Z,7.50
2018-08-04T21:44:35.851Z,7.90
2018-08-04T21:47:05.509Z,8.33
2018-08-04T21:49:35.346Z,8.53
2018-08-04T21:52:04.994Z,7.40
2018-08-04T21:54:34.669Z,7.47
2018-08-04T21:57:04.370Z,7.57
2018-08-04T21:59:34.020Z,7.40
2018-08-04T22:02:03.866Z,7.40
2018-08-04T22:04:33.406Z,6.97
2018-08-04T22:07:43.516Z,7.77
2018-08-04T22:10:13.613Z,7.40
2018-08-04T22:12:43.752Z,7.70
2018-08-04T22:15:14.793Z,7.93
2018-08-04T22:17:51.219Z,7.97
2018-08-04T22:20:21.787Z,8.00
2018-08-04T22:22:51.496Z,7.37
2018-08-04T22:25:23.738Z,7.43
2018-08-04T22:27:53.698Z,8.20
2018-08-04T22:30:23.707Z,8.00
2018-08-04T22:32:53.492Z,7.63
2018-08-04T22:35:23.453Z,8.17
2018-08-04T22:37:53.108Z,8.83
2018-08-04T22:40:22.942Z,7.60
2018-08-04T22:42:52.604Z,7.93
2018-08-04T22:45:34.284Z,8.33
2018-08-04T22:48:03.944Z,7.53
2018-08-04T22:50:33.656Z,7.30
2018-08-04T22:53:03.344Z,9.07
2018-08-04T22:55:33.004Z,8.57
2018-08-04T22:58:02.654Z,9.20
2018-08-04T23:00:32.624Z,8.53
2018-08-04T23:03:02.303Z,7.80
2018-08-04T23:05:31.973Z,8.23
2018-08-04T23:08:01.880Z,8.37
2018-08-04T23:10:31.792Z,7.23
2018-08-04T23:13:01.442Z,8.17
2018-08-04T23:15:31.107Z,8.40
2018-08-04T23:18:00.751Z,7.53
2018-08-04T23:20:30.425Z,7.50
2018-08-04T23:23:00.530Z,7.67
2018-08-04T23:25:30.208Z,8.27
2018-08-04T23:27:59.846Z,6.83
2018-08-04T23:30:29.490Z,6.97
2018-08-04T23:32:59.190Z,7.43
2018-08-04T23:35:29.072Z,7.33
2018-08-04T23:37:58.714Z,7.47
2018-08-04T23:40:28.385Z,8.03
2018-08-04T23:42:58.087Z,6.73
2018-08-04T23:45:27.760Z,7.33
2018-08-04T23:47:57.425Z,7.27
2018-08-04T23:50:27.079Z,7.67
2018-08-04T23:52:56.722Z,7.30
2018-08-04T23:55:26.365Z,7.20
2018-08-04T23:57:55.993Z,7.20
